sensor_id;sensor_type;location;lat;lon;timestamp;temperature;humidity
6810;DHT22;3443;48.812;9.112;2023-01-16T00:02:01;2.70;99.90
6810;DHT22;3443;48.812;9.112;2023-01-16T00:04:27;2.80;99.90
6810;DHT22;3443;48.812;9.112;2023-01-16T00:06:54;2.90;99.90
6810;DHT22;3443;48.812;9.112;2023-01-16T00:09:20;2.90;99.90
6810;DHT22;3443;48.812;9.112;2023-01-16T00:11:46;2.90;99.90
6810;DHT22;3443;48.812;9.112;2023-01-16T00:14:12;3.00;99.90
6810;DHT22;3443;48.812;9.112;2023-01-16T00:16:37;3.00;99.90
6810;DHT22;3443;48.812;9.112;2023-01-16T00:19:03;3.10;99.90
6810;DHT22;3443;48.812;9.112;2023-01-16T00:21:29;3.10;99.90
6810;DHT22;3443;48.812;9.112;2023-01-16T00:23:55;3.10;99.90
6810;DHT22;3443;48.812;9.112;2023-01-16T00:26:22;3.10;99.90
6810;DHT22;3443;48.812;9.112;2023-01-16T00:28:48;3.10;99.90
6810;DHT22;3443;48.812;9.112;2023-01-16T00:31:14;3.10;99.90
6810;DHT22;3443;48.812;9.112;2023-01-16T00:33:39;3.10;99.90
6810;DHT22;3443;48.812;9.112;2023-01-16T00:36:06;3.10;99.90
6810;DHT22;3443;48.812;9.112;2023-01-16T00:38:31;3.10;99.90
6810;DHT22;3443;48.812;9.112;2023-01-16T00:40:58;3.20;99.90
6810;DHT22;3443;48.812;9.112;2023-01-16T00:43:23;3.20;99.90
6810;DHT22;3443;48.812;9.112;2023-01-16T00:45:49;3.20;99.90
6810;DHT22;3443;48.812;9.112;2023-01-16T00:48:15;3.20;99.90
6810;DHT22;3443;48.812;9.112;2023-01-16T00:50:40;3.20;99.90
6810;DHT22;3443;48.812;9.112;2023-01-16T00:53:06;3.20;99.90
6810;DHT22;3443;48.812;9.112;2023-01-16T00:55:35;3.10;99.90
6810;DHT22;3443;48.812;9.112;2023-01-16T00:58:02;3.00;99.90
6810;DHT22;3443;48.812;9.112;2023-01-16T01:00:28;3.00;99.90
6810;DHT22;3443;48.812;9.112;2023-01-16T01:02:54;3.00;99.90
6810;DHT22;3443;48.812;9.112;2023-01-16T01:05:19;2.90;99.90
6810;DHT22;3443;48.812;9.112;2023-01-16T01:07:45;2.90;99.90
6810;DHT22;3443;48.812;9.112;2023-01-16T01:10:11;2.80;99.90
6810;DHT22;3443;48.812;9.112;2023-01-16T01:12:36;2.90;99.90
6810;DHT22;3443;48.812;9.112;2023-01-16T01:15:02;2.80;99.90
6810;DHT22;3443;48.812;9.112;2023-01-16T01:17:28;2.80;99.90
6810;DHT22;3443;48.812;9.112;2023-01-16T01:19:54;2.80;99.90
6810;DHT22;3443;48.812;9.112;2023-01-16T01:22:19;2.70;99.90
6810;DHT22;3443;48.812;9.112;2023-01-16T01:24:48;2.70;99.90
6810;DHT22;3443;48.812;9.112;2023-01-16T01:27:16;2.80;99.90
6810;DHT22;3443;48.812;9.112;2023-01-16T01:29:41;2.70;99.90
6810;DHT22;3443;48.812;9.112;2023-01-16T01:32:07;2.70;99.90
6810;DHT22;3443;48.812;9.112;2023-01-16T01:34:33;2.70;99.90
6810;DHT22;3443;48.812;9.112;2023-01-16T01:37:01;2.60;99.90
6810;DHT22;3443;48.812;9.112;2023-01-16T01:39:27;2.60;99.90
6810;DHT22;3443;48.812;9.112;2023-01-16T01:41:52;2.60;99.90
6810;DHT22;3443;48.812;9.112;2023-01-16T01:44:44;2.60;99.90
6810;DHT22;3443;48.812;9.112;2023-01-16T01:47:13;2.60;99.90
6810;DHT22;3443;48.812;9.112;2023-01-16T01:49:40;2.60;99.90
6810;DHT22;3443;48.812;9.112;2023-01-16T01:52:06;2.60;99.90
6810;DHT22;3443;48.812;9.112;2023-01-16T01:54:38;2.60;99.90
6810;DHT22;3443;48.812;9.112;2023-01-16T01:57:14;2.60;99.90
6810;DHT22;3443;48.812;9.112;2023-01-16T01:59:51;2.60;99.90
6810;DHT22;3443;48.812;9.112;2023-01-16T02:02:23;2.60;99.90
6810;DHT22;3443;48.812;9.112;2023-01-16T02:04:52;2.60;99.90
6810;DHT22;3443;48.812;9.112;2023-01-16T02:07:22;2.60;99.90
6810;DHT22;3443;48.812;9.112;2023-01-16T02:09:50;2.70;99.90
6810;DHT22;3443;48.812;9.112;2023-01-16T02:12:18;2.60;99.90
6810;DHT22;3443;48.812;9.112;2023-01-16T02:14:46;2.60;99.90
6810;DHT22;3443;48.812;9.112;2023-01-16T02:17:17;2.60;99.90
6810;DHT22;3443;48.812;9.112;2023-01-16T02:31:21;2.60;99.90
6810;DHT22;3443;48.812;9.112;2023-01-16T02:36:26;2.60;99.90
6810;DHT22;3443;48.812;9.112;2023-01-16T02:39:12;2.60;99.90
6810;DHT22;3443;48.812;9.112;2023-01-16T02:42:13;2.60;99.90
6810;DHT22;3443;48.812;9.112;2023-01-16T02:44:51;2.60;99.90
6810;DHT22;3443;48.812;9.112;2023-01-16T02:47:31;2.60;99.90
6810;DHT22;3443;48.812;9.112;2023-01-16T02:52:44;2.70;99.90
6810;DHT22;3443;48.812;9.112;2023-01-16T02:55:22;2.70;99.90
6810;DHT22;3443;48.812;9.112;2023-01-16T02:57:56;2.70;99.90
6810;DHT22;3443;48.812;9.112;2023-01-16T03:00:23;2.70;99.90
6810;DHT22;3443;48.812;9.112;2023-01-16T03:02:49;2.70;99.90
6810;DHT22;3443;48.812;9.112;2023-01-16T03:05:14;2.70;99.90
6810;DHT22;3443;48.812;9.112;2023-01-16T03:08:00;2.60;99.90
6810;DHT22;3443;48.812;9.112;2023-01-16T03:13:28;2.70;99.90
6810;DHT22;3443;48.812;9.112;2023-01-16T03:16:30;2.70;99.90
6810;DHT22;3443;48.812;9.112;2023-01-16T03:19:26;2.70;99.90
6810;DHT22;3443;48.812;9.112;2023-01-16T03:27:34;2.70;99.90
6810;DHT22;3443;48.812;9.112;2023-01-16T03:30:19;2.70;99.90
6810;DHT22;3443;48.812;9.112;2023-01-16T03:32:53;2.70;99.90
6810;DHT22;3443;48.812;9.112;2023-01-16T03:35:27;2.70;99.90
6810;DHT22;3443;48.812;9.112;2023-01-16T03:37:56;2.60;99.90
6810;DHT22;3443;48.812;9.112;2023-01-16T03:40:28;2.60;99.90
6810;DHT22;3443;48.812;9.112;2023-01-16T03:43:05;2.60;99.90
6810;DHT22;3443;48.812;9.112;2023-01-16T03:45:45;2.60;99.90
6810;DHT22;3443;48.812;9.112;2023-01-16T03:50:57;2.50;99.90
6810;DHT22;3443;48.812;9.112;2023-01-16T03:53:28;2.50;99.90
6810;DHT22;3443;48.812;9.112;2023-01-16T03:56:13;2.50;99.90
6810;DHT22;3443;48.812;9.112;2023-01-16T03:58:42;2.50;99.90
6810;DHT22;3443;48.812;9.112;2023-01-16T04:01:26;2.40;99.90
6810;DHT22;3443;48.812;9.112;2023-01-16T04:08:58;2.40;99.90
6810;DHT22;3443;48.812;9.112;2023-01-16T04:11:26;2.30;99.90
6810;DHT22;3443;48.812;9.112;2023-01-16T04:13:55;2.30;99.90
6810;DHT22;3443;48.812;9.112;2023-01-16T04:16:22;2.30;99.90
6810;DHT22;3443;48.812;9.112;2023-01-16T04:18:49;2.20;99.90
6810;DHT22;3443;48.812;9.112;2023-01-16T04:21:18;2.30;99.90
6810;DHT22;3443;48.812;9.112;2023-01-16T04:23:44;2.30;99.90
6810;DHT22;3443;48.812;9.112;2023-01-16T04:26:09;2.20;99.90
6810;DHT22;3443;48.812;9.112;2023-01-16T04:28:35;2.20;99.90
6810;DHT22;3443;48.812;9.112;2023-01-16T04:31:00;2.20;99.90
6810;DHT22;3443;48.812;9.112;2023-01-16T04:33:26;2.20;99.90
6810;DHT22;3443;48.812;9.112;2023-01-16T04:35:52;2.20;99.90
6810;DHT22;3443;48.812;9.112;2023-01-16T04:38:17;2.20;99.90
6810;DHT22;3443;48.812;9.112;2023-01-16T04:40:43;2.20;99.90
6810;DHT22;3443;48.812;9.112;2023-01-16T04:43:08;2.10;99.90
6810;DHT22;3443;48.812;9.112;2023-01-16T04:45:34;2.10;99.90
6810;DHT22;3443;48.812;9.112;2023-01-16T04:48:00;2.00;99.90
6810;DHT22;3443;48.812;9.112;2023-01-16T04:50:25;2.00;99.90
6810;DHT22;3443;48.812;9.112;2023-01-16T04:52:51;2.00;99.90
6810;DHT22;3443;48.812;9.112;2023-01-16T04:55:16;2.00;99.90
6810;DHT22;3443;48.812;9.112;2023-01-16T04:57:42;2.00;99.90
6810;DHT22;3443;48.812;9.112;2023-01-16T05:00:09;1.90;99.90
6810;DHT22;3443;48.812;9.112;2023-01-16T05:02:35;1.90;99.90
6810;DHT22;3443;48.812;9.112;2023-01-16T05:05:01;1.90;99.90
6810;DHT22;3443;48.812;9.112;2023-01-16T05:07:26;1.80;99.90
6810;DHT22;3443;48.812;9.112;2023-01-16T05:09:53;1.80;99.90
6810;DHT22;3443;48.812;9.112;2023-01-16T05:12:19;1.80;99.90
6810;DHT22;3443;48.812;9.112;2023-01-16T05:14:45;1.70;99.90
6810;DHT22;3443;48.812;9.112;2023-01-16T05:17:10;1.70;99.90
6810;DHT22;3443;48.812;9.112;2023-01-16T05:19:36;1.70;99.90
6810;DHT22;3443;48.812;9.112;2023-01-16T05:22:01;1.70;99.90
6810;DHT22;3443;48.812;9.112;2023-01-16T05:24:27;1.70;99.90
6810;DHT22;3443;48.812;9.112;2023-01-16T05:26:52;1.60;99.90
6810;DHT22;3443;48.812;9.112;2023-01-16T05:29:18;1.60;99.90
6810;DHT22;3443;48.812;9.112;2023-01-16T05:31:44;1.60;99.90
6810;DHT22;3443;48.812;9.112;2023-01-16T05:34:09;1.50;99.90
6810;DHT22;3443;48.812;9.112;2023-01-16T05:36:35;1.50;99.90
6810;DHT22;3443;48.812;9.112;2023-01-16T05:39:01;1.50;99.90
6810;DHT22;3443;48.812;9.112;2023-01-16T05:41:26;1.40;99.90
6810;DHT22;3443;48.812;9.112;2023-01-16T05:43:52;1.40;99.90
6810;DHT22;3443;48.812;9.112;2023-01-16T05:46:17;1.40;99.90
6810;DHT22;3443;48.812;9.112;2023-01-16T05:48:43;1.50;99.90
6810;DHT22;3443;48.812;9.112;2023-01-16T05:51:09;1.40;99.90
6810;DHT22;3443;48.812;9.112;2023-01-16T05:53:34;1.40;99.90
6810;DHT22;3443;48.812;9.112;2023-01-16T05:56:12;1.40;99.90
6810;DHT22;3443;48.812;9.112;2023-01-16T05:58:37;1.40;99.90
6810;DHT22;3443;48.812;9.112;2023-01-16T06:01:03;1.40;99.90
6810;DHT22;3443;48.812;9.112;2023-01-16T06:03:29;1.40;99.90
6810;DHT22;3443;48.812;9.112;2023-01-16T06:05:55;1.40;99.90
6810;DHT22;3443;48.812;9.112;2023-01-16T06:08:20;1.40;99.90
6810;DHT22;3443;48.812;9.112;2023-01-16T06:10:46;1.40;99.90
6810;DHT22;3443;48.812;9.112;2023-01-16T06:13:13;1.30;99.90
6810;DHT22;3443;48.812;9.112;2023-01-16T06:15:39;1.30;99.90
6810;DHT22;3443;48.812;9.112;2023-01-16T06:18:04;1.30;99.90
6810;DHT22;3443;48.812;9.112;2023-01-16T06:20:30;1.30;99.90
6810;DHT22;3443;48.812;9.112;2023-01-16T06:22:55;1.30;99.90
6810;DHT22;3443;48.812;9.112;2023-01-16T06:25:21;1.30;99.90
6810;DHT22;3443;48.812;9.112;2023-01-16T06:27:48;1.30;99.90
6810;DHT22;3443;48.812;9.112;2023-01-16T06:30:14;1.30;99.90
6810;DHT22;3443;48.812;9.112;2023-01-16T06:32:39;1.30;99.90
6810;DHT22;3443;48.812;9.112;2023-01-16T06:35:05;1.30;99.90
6810;DHT22;3443;48.812;9.112;2023-01-16T06:37:31;1.30;99.90
6810;DHT22;3443;48.812;9.112;2023-01-16T06:39:56;1.30;99.90
6810;DHT22;3443;48.812;9.112;2023-01-16T06:42:24;1.40;99.90
6810;DHT22;3443;48.812;9.112;2023-01-16T06:44:50;1.40;99.90
6810;DHT22;3443;48.812;9.112;2023-01-16T06:47:15;1.40;99.90
6810;DHT22;3443;48.812;9.112;2023-01-16T06:49:41;1.40;99.90
6810;DHT22;3443;48.812;9.112;2023-01-16T06:52:07;1.50;99.90
6810;DHT22;3443;48.812;9.112;2023-01-16T06:54:32;1.50;99.90
6810;DHT22;3443;48.812;9.112;2023-01-16T06:56:58;1.60;99.90
6810;DHT22;3443;48.812;9.112;2023-01-16T06:59:23;1.70;99.90
6810;DHT22;3443;48.812;9.112;2023-01-16T07:01:49;1.80;99.90
6810;DHT22;3443;48.812;9.112;2023-01-16T07:04:14;1.90;99.90
6810;DHT22;3443;48.812;9.112;2023-01-16T07:06:40;1.90;99.90
6810;DHT22;3443;48.812;9.112;2023-01-16T07:09:08;1.90;99.90
6810;DHT22;3443;48.812;9.112;2023-01-16T07:11:34;2.00;99.90
6810;DHT22;3443;48.812;9.112;2023-01-16T07:13:59;2.00;99.90
6810;DHT22;3443;48.812;9.112;2023-01-16T07:16:43;2.00;99.90
6810;DHT22;3443;48.812;9.112;2023-01-16T07:19:28;2.00;99.90
6810;DHT22;3443;48.812;9.112;2023-01-16T07:22:13;2.00;99.90
6810;DHT22;3443;48.812;9.112;2023-01-16T07:24:58;2.10;99.90
6810;DHT22;3443;48.812;9.112;2023-01-16T07:27:25;2.10;99.90
6810;DHT22;3443;48.812;9.112;2023-01-16T07:29:51;2.10;99.90
6810;DHT22;3443;48.812;9.112;2023-01-16T07:32:16;2.10;99.90
6810;DHT22;3443;48.812;9.112;2023-01-16T07:34:42;2.20;99.90
6810;DHT22;3443;48.812;9.112;2023-01-16T07:37:08;2.20;99.90
6810;DHT22;3443;48.812;9.112;2023-01-16T07:39:36;2.20;99.90
6810;DHT22;3443;48.812;9.112;2023-01-16T07:42:06;2.20;99.90
6810;DHT22;3443;48.812;9.112;2023-01-16T07:44:32;2.10;99.90
6810;DHT22;3443;48.812;9.112;2023-01-16T07:46:58;2.20;99.90
6810;DHT22;3443;48.812;9.112;2023-01-16T07:49:24;2.30;99.90
6810;DHT22;3443;48.812;9.112;2023-01-16T07:51:49;2.30;99.90
6810;DHT22;3443;48.812;9.112;2023-01-16T07:54:15;2.30;99.90
6810;DHT22;3443;48.812;9.112;2023-01-16T07:56:41;2.40;99.90
6810;DHT22;3443;48.812;9.112;2023-01-16T07:59:07;2.40;99.90
6810;DHT22;3443;48.812;9.112;2023-01-16T08:01:33;2.40;99.90
6810;DHT22;3443;48.812;9.112;2023-01-16T08:03:59;2.40;99.90
6810;DHT22;3443;48.812;9.112;2023-01-16T08:06:24;2.40;99.90
6810;DHT22;3443;48.812;9.112;2023-01-16T08:08:50;2.40;99.90
6810;DHT22;3443;48.812;9.112;2023-01-16T08:11:16;2.50;99.90
6810;DHT22;3443;48.812;9.112;2023-01-16T08:14:00;2.50;99.90
6810;DHT22;3443;48.812;9.112;2023-01-16T08:16:26;2.50;99.90
6810;DHT22;3443;48.812;9.112;2023-01-16T08:18:52;2.50;99.90
6810;DHT22;3443;48.812;9.112;2023-01-16T08:21:18;2.60;99.90
6810;DHT22;3443;48.812;9.112;2023-01-16T08:23:45;2.60;99.90
6810;DHT22;3443;48.812;9.112;2023-01-16T08:26:11;2.60;99.90
6810;DHT22;3443;48.812;9.112;2023-01-16T08:28:39;2.60;99.90
6810;DHT22;3443;48.812;9.112;2023-01-16T08:31:10;2.70;99.90
6810;DHT22;3443;48.812;9.112;2023-01-16T08:33:39;2.80;99.90
6810;DHT22;3443;48.812;9.112;2023-01-16T08:36:05;2.80;99.90
6810;DHT22;3443;48.812;9.112;2023-01-16T08:38:31;2.80;99.90
6810;DHT22;3443;48.812;9.112;2023-01-16T08:40:57;2.90;99.90
6810;DHT22;3443;48.812;9.112;2023-01-16T08:43:24;2.90;99.90
6810;DHT22;3443;48.812;9.112;2023-01-16T08:46:20;3.00;99.90
6810;DHT22;3443;48.812;9.112;2023-01-16T08:49:10;3.00;99.90
6810;DHT22;3443;48.812;9.112;2023-01-16T08:51:56;3.00;99.90
6810;DHT22;3443;48.812;9.112;2023-01-16T08:54:21;3.00;99.90
6810;DHT22;3443;48.812;9.112;2023-01-16T08:56:47;3.00;99.90
6810;DHT22;3443;48.812;9.112;2023-01-16T08:59:12;3.10;99.90
6810;DHT22;3443;48.812;9.112;2023-01-16T09:01:38;3.10;99.90
6810;DHT22;3443;48.812;9.112;2023-01-16T09:04:05;3.10;99.90
6810;DHT22;3443;48.812;9.112;2023-01-16T09:06:31;3.10;99.90
6810;DHT22;3443;48.812;9.112;2023-01-16T09:08:56;3.20;99.90
6810;DHT22;3443;48.812;9.112;2023-01-16T09:11:22;3.20;99.90
6810;DHT22;3443;48.812;9.112;2023-01-16T09:14:06;3.30;99.90
6810;DHT22;3443;48.812;9.112;2023-01-16T09:16:32;3.30;99.90
6810;DHT22;3443;48.812;9.112;2023-01-16T09:18:57;3.30;99.90
6810;DHT22;3443;48.812;9.112;2023-01-16T09:21:23;3.30;99.90
6810;DHT22;3443;48.812;9.112;2023-01-16T09:23:50;3.40;99.90
6810;DHT22;3443;48.812;9.112;2023-01-16T09:26:16;3.40;99.90
6810;DHT22;3443;48.812;9.112;2023-01-16T09:28:42;3.40;99.90
6810;DHT22;3443;48.812;9.112;2023-01-16T09:31:08;3.50;99.90
6810;DHT22;3443;48.812;9.112;2023-01-16T09:33:34;3.50;99.90
6810;DHT22;3443;48.812;9.112;2023-01-16T09:35:59;3.70;99.90
6810;DHT22;3443;48.812;9.112;2023-01-16T09:38:25;3.80;99.90
6810;DHT22;3443;48.812;9.112;2023-01-16T09:40:55;3.80;99.90
6810;DHT22;3443;48.812;9.112;2023-01-16T09:46:14;4.00;99.90
6810;DHT22;3443;48.812;9.112;2023-01-16T09:51:22;4.20;99.90
6810;DHT22;3443;48.812;9.112;2023-01-16T09:54:03;4.20;99.90
6810;DHT22;3443;48.812;9.112;2023-01-16T09:56:50;4.20;99.90
6810;DHT22;3443;48.812;9.112;2023-01-16T09:59:52;4.20;99.90
6810;DHT22;3443;48.812;9.112;2023-01-16T10:02:32;4.20;99.90
6810;DHT22;3443;48.812;9.112;2023-01-16T10:04:59;4.20;99.90
6810;DHT22;3443;48.812;9.112;2023-01-16T10:13:32;4.20;99.90
6810;DHT22;3443;48.812;9.112;2023-01-16T10:16:17;4.30;99.90
6810;DHT22;3443;48.812;9.112;2023-01-16T10:26:30;4.20;99.90
6810;DHT22;3443;48.812;9.112;2023-01-16T10:32:14;4.30;99.90
6810;DHT22;3443;48.812;9.112;2023-01-16T10:34:56;4.30;99.90
6810;DHT22;3443;48.812;9.112;2023-01-16T10:37:32;4.40;99.90
6810;DHT22;3443;48.812;9.112;2023-01-16T10:40:15;4.40;99.90
6810;DHT22;3443;48.812;9.112;2023-01-16T10:42:46;4.50;99.90
6810;DHT22;3443;48.812;9.112;2023-01-16T10:45:34;4.50;99.90
6810;DHT22;3443;48.812;9.112;2023-01-16T10:48:19;4.60;99.90
6810;DHT22;3443;48.812;9.112;2023-01-16T10:51:05;4.60;99.90
6810;DHT22;3443;48.812;9.112;2023-01-16T10:53:34;4.70;99.90
6810;DHT22;3443;48.812;9.112;2023-01-16T10:56:01;4.80;99.90
6810;DHT22;3443;48.812;9.112;2023-01-16T10:58:28;4.90;99.90
6810;DHT22;3443;48.812;9.112;2023-01-16T11:01:02;4.90;99.90
6810;DHT22;3443;48.812;9.112;2023-01-16T11:03:38;5.00;99.90
6810;DHT22;3443;48.812;9.112;2023-01-16T11:06:20;5.00;99.90
6810;DHT22;3443;48.812;9.112;2023-01-16T11:09:02;5.10;99.90
6810;DHT22;3443;48.812;9.112;2023-01-16T11:11:29;5.10;99.90
6810;DHT22;3443;48.812;9.112;2023-01-16T11:14:24;5.10;99.90
6810;DHT22;3443;48.812;9.112;2023-01-16T11:17:31;5.20;99.90
6810;DHT22;3443;48.812;9.112;2023-01-16T11:22:56;5.30;99.90
6810;DHT22;3443;48.812;9.112;2023-01-16T11:25:23;5.40;99.90
6810;DHT22;3443;48.812;9.112;2023-01-16T11:27:50;5.60;99.90
6810;DHT22;3443;48.812;9.112;2023-01-16T11:30:21;5.50;99.90
6810;DHT22;3443;48.812;9.112;2023-01-16T11:32:53;5.50;99.90
6810;DHT22;3443;48.812;9.112;2023-01-16T11:35:20;5.60;99.90
6810;DHT22;3443;48.812;9.112;2023-01-16T11:37:50;5.60;99.90
6810;DHT22;3443;48.812;9.112;2023-01-16T11:40:22;5.60;99.90
6810;DHT22;3443;48.812;9.112;2023-01-16T11:42:56;5.70;99.90
6810;DHT22;3443;48.812;9.112;2023-01-16T11:45:46;5.70;99.90
6810;DHT22;3443;48.812;9.112;2023-01-16T11:48:28;5.70;99.90
6810;DHT22;3443;48.812;9.112;2023-01-16T11:50:58;5.60;99.90
6810;DHT22;3443;48.812;9.112;2023-01-16T11:53:30;5.60;99.90
6810;DHT22;3443;48.812;9.112;2023-01-16T11:59:09;5.60;99.90
6810;DHT22;3443;48.812;9.112;2023-01-16T12:04:34;5.70;99.90
6810;DHT22;3443;48.812;9.112;2023-01-16T12:07:22;5.70;99.90
6810;DHT22;3443;48.812;9.112;2023-01-16T12:10:33;5.70;99.90
6810;DHT22;3443;48.812;9.112;2023-01-16T12:13:06;5.70;99.90
6810;DHT22;3443;48.812;9.112;2023-01-16T12:24:39;5.70;99.90
6810;DHT22;3443;48.812;9.112;2023-01-16T12:30:08;5.80;99.90
6810;DHT22;3443;48.812;9.112;2023-01-16T12:35:47;5.80;99.90
6810;DHT22;3443;48.812;9.112;2023-01-16T12:38:18;5.80;99.90
6810;DHT22;3443;48.812;9.112;2023-01-16T12:41:20;5.90;99.90
6810;DHT22;3443;48.812;9.112;2023-01-16T12:47:00;6.00;99.90
6810;DHT22;3443;48.812;9.112;2023-01-16T12:49:46;6.00;99.90
6810;DHT22;3443;48.812;9.112;2023-01-16T12:53:27;6.00;99.90
6810;DHT22;3443;48.812;9.112;2023-01-16T12:58:30;6.00;99.90
6810;DHT22;3443;48.812;9.112;2023-01-16T13:01:35;6.10;99.90
6810;DHT22;3443;48.812;9.112;2023-01-16T13:04:11;6.00;99.90
6810;DHT22;3443;48.812;9.112;2023-01-16T13:06:43;6.10;99.90
6810;DHT22;3443;48.812;9.112;2023-01-16T13:09:34;6.20;99.90
6810;DHT22;3443;48.812;9.112;2023-01-16T13:12:23;6.20;99.90
6810;DHT22;3443;48.812;9.112;2023-01-16T13:15:17;6.20;99.90
6810;DHT22;3443;48.812;9.112;2023-01-16T13:17:57;6.30;99.90
6810;DHT22;3443;48.812;9.112;2023-01-16T13:20:24;6.30;99.90
6810;DHT22;3443;48.812;9.112;2023-01-16T13:22:51;6.40;99.90
6810;DHT22;3443;48.812;9.112;2023-01-16T13:25:34;6.40;99.90
6810;DHT22;3443;48.812;9.112;2023-01-16T13:30:31;6.50;99.90
6810;DHT22;3443;48.812;9.112;2023-01-16T13:32:59;6.60;99.90
6810;DHT22;3443;48.812;9.112;2023-01-16T13:43:21;7.00;99.90
6810;DHT22;3443;48.812;9.112;2023-01-16T13:46:08;7.10;99.90
6810;DHT22;3443;48.812;9.112;2023-01-16T13:48:35;7.00;99.90
6810;DHT22;3443;48.812;9.112;2023-01-16T13:51:15;7.00;99.90
6810;DHT22;3443;48.812;9.112;2023-01-16T13:53:46;6.90;99.90
6810;DHT22;3443;48.812;9.112;2023-01-16T13:56:19;6.80;99.90
6810;DHT22;3443;48.812;9.112;2023-01-16T13:59:06;6.80;99.90
6810;DHT22;3443;48.812;9.112;2023-01-16T14:04:26;6.90;99.90
6810;DHT22;3443;48.812;9.112;2023-01-16T14:07:01;6.70;99.90
6810;DHT22;3443;48.812;9.112;2023-01-16T14:10:15;6.60;99.90
6810;DHT22;3443;48.812;9.112;2023-01-16T14:13:01;6.60;99.90
6810;DHT22;3443;48.812;9.112;2023-01-16T14:15:53;6.50;99.90
6810;DHT22;3443;48.812;9.112;2023-01-16T14:21:20;6.40;99.90
6810;DHT22;3443;48.812;9.112;2023-01-16T14:23:59;6.40;99.90
6810;DHT22;3443;48.812;9.112;2023-01-16T14:31:56;6.10;99.90
6810;DHT22;3443;48.812;9.112;2023-01-16T14:34:26;6.00;99.90
6810;DHT22;3443;48.812;9.112;2023-01-16T14:36:55;5.90;99.90
6810;DHT22;3443;48.812;9.112;2023-01-16T14:39:37;5.80;99.90
6810;DHT22;3443;48.812;9.112;2023-01-16T14:42:13;5.50;99.90
6810;DHT22;3443;48.812;9.112;2023-01-16T14:45:21;5.70;99.90
6810;DHT22;3443;48.812;9.112;2023-01-16T14:50:59;5.60;99.90
6810;DHT22;3443;48.812;9.112;2023-01-16T14:53:47;5.60;99.90
6810;DHT22;3443;48.812;9.112;2023-01-16T14:56:33;5.60;99.90
6810;DHT22;3443;48.812;9.112;2023-01-16T15:01:40;6.20;99.90
6810;DHT22;3443;48.812;9.112;2023-01-16T15:04:31;5.40;99.90
6810;DHT22;3443;48.812;9.112;2023-01-16T15:07:02;5.80;99.90
6810;DHT22;3443;48.812;9.112;2023-01-16T15:09:30;5.40;99.90
6810;DHT22;3443;48.812;9.112;2023-01-16T15:12:00;5.40;99.90
6810;DHT22;3443;48.812;9.112;2023-01-16T15:14:27;5.60;99.90
6810;DHT22;3443;48.812;9.112;2023-01-16T15:20:15;5.40;99.90
6810;DHT22;3443;48.812;9.112;2023-01-16T15:23:02;5.50;99.90
6810;DHT22;3443;48.812;9.112;2023-01-16T15:28:13;5.50;99.90
6810;DHT22;3443;48.812;9.112;2023-01-16T15:30:41;5.50;99.90
6810;DHT22;3443;48.812;9.112;2023-01-16T15:33:22;5.60;99.90
6810;DHT22;3443;48.812;9.112;2023-01-16T15:38:54;5.70;99.90
6810;DHT22;3443;48.812;9.112;2023-01-16T15:41:29;5.60;99.90
6810;DHT22;3443;48.812;9.112;2023-01-16T15:44:17;5.60;99.90
6810;DHT22;3443;48.812;9.112;2023-01-16T15:52:46;5.20;99.90
6810;DHT22;3443;48.812;9.112;2023-01-16T15:55:30;5.10;99.90
6810;DHT22;3443;48.812;9.112;2023-01-16T15:57:58;5.00;99.90
6810;DHT22;3443;48.812;9.112;2023-01-16T16:00:34;5.00;99.90
6810;DHT22;3443;48.812;9.112;2023-01-16T16:03:20;4.90;99.90
6810;DHT22;3443;48.812;9.112;2023-01-16T16:05:55;4.80;99.90
6810;DHT22;3443;48.812;9.112;2023-01-16T16:08:27;4.70;99.90
6810;DHT22;3443;48.812;9.112;2023-01-16T16:10:56;4.70;99.90
6810;DHT22;3443;48.812;9.112;2023-01-16T16:13:40;4.60;99.90
6810;DHT22;3443;48.812;9.112;2023-01-16T16:16:18;4.60;99.90
6810;DHT22;3443;48.812;9.112;2023-01-16T16:19:03;4.60;99.90
6810;DHT22;3443;48.812;9.112;2023-01-16T16:21:52;4.60;99.90
6810;DHT22;3443;48.812;9.112;2023-01-16T16:24:38;4.50;99.90
6810;DHT22;3443;48.812;9.112;2023-01-16T16:27:13;4.50;99.90
6810;DHT22;3443;48.812;9.112;2023-01-16T16:29:47;4.40;99.90
6810;DHT22;3443;48.812;9.112;2023-01-16T16:32:36;4.40;99.90
6810;DHT22;3443;48.812;9.112;2023-01-16T16:35:02;4.30;99.90
6810;DHT22;3443;48.812;9.112;2023-01-16T16:37:28;4.30;99.90
6810;DHT22;3443;48.812;9.112;2023-01-16T16:40:02;4.20;99.90
6810;DHT22;3443;48.812;9.112;2023-01-16T16:47:35;4.10;99.90
6810;DHT22;3443;48.812;9.112;2023-01-16T16:50:08;4.20;99.90
6810;DHT22;3443;48.812;9.112;2023-01-16T16:52:48;4.00;99.90
6810;DHT22;3443;48.812;9.112;2023-01-16T16:58:01;4.10;99.90
6810;DHT22;3443;48.812;9.112;2023-01-16T17:00:28;3.90;99.90
6810;DHT22;3443;48.812;9.112;2023-01-16T17:03:05;4.10;99.90
6810;DHT22;3443;48.812;9.112;2023-01-16T17:05:32;3.50;99.90
6810;DHT22;3443;48.812;9.112;2023-01-16T17:07:58;3.90;99.90
6810;DHT22;3443;48.812;9.112;2023-01-16T17:10:24;3.80;99.90
6810;DHT22;3443;48.812;9.112;2023-01-16T17:12:50;3.80;99.90
6810;DHT22;3443;48.812;9.112;2023-01-16T17:15:15;3.80;99.90
6810;DHT22;3443;48.812;9.112;2023-01-16T17:17:43;4.70;99.90
6810;DHT22;3443;48.812;9.112;2023-01-16T17:20:17;3.80;99.90
6810;DHT22;3443;48.812;9.112;2023-01-16T17:22:43;3.70;99.90
6810;DHT22;3443;48.812;9.112;2023-01-16T17:25:11;3.70;99.90
6810;DHT22;3443;48.812;9.112;2023-01-16T17:27:55;3.70;99.90
6810;DHT22;3443;48.812;9.112;2023-01-16T17:30:22;3.70;99.90
6810;DHT22;3443;48.812;9.112;2023-01-16T17:32:56;4.60;99.90
6810;DHT22;3443;48.812;9.112;2023-01-16T17:35:22;3.70;99.90
6810;DHT22;3443;48.812;9.112;2023-01-16T17:37:48;3.70;99.90
6810;DHT22;3443;48.812;9.112;2023-01-16T17:40:14;3.70;99.90
6810;DHT22;3443;48.812;9.112;2023-01-16T17:42:40;3.70;99.90
6810;DHT22;3443;48.812;9.112;2023-01-16T17:45:27;4.50;99.90
6810;DHT22;3443;48.812;9.112;2023-01-16T17:48:11;3.60;99.90
6810;DHT22;3443;48.812;9.112;2023-01-16T17:50:38;3.60;99.90
6810;DHT22;3443;48.812;9.112;2023-01-16T17:53:04;4.40;99.90
6810;DHT22;3443;48.812;9.112;2023-01-16T17:55:29;3.70;99.90
6810;DHT22;3443;48.812;9.112;2023-01-16T17:58:14;3.60;99.90
6810;DHT22;3443;48.812;9.112;2023-01-16T18:00:39;3.90;99.90
6810;DHT22;3443;48.812;9.112;2023-01-16T18:03:06;3.70;99.90
6810;DHT22;3443;48.812;9.112;2023-01-16T18:05:32;3.60;99.90
6810;DHT22;3443;48.812;9.112;2023-01-16T18:07:58;3.60;99.90
6810;DHT22;3443;48.812;9.112;2023-01-16T18:10:23;3.50;99.90
6810;DHT22;3443;48.812;9.112;2023-01-16T18:12:49;4.20;99.90
6810;DHT22;3443;48.812;9.112;2023-01-16T18:15:38;3.80;99.90
6810;DHT22;3443;48.812;9.112;2023-01-16T18:18:22;3.60;99.90
6810;DHT22;3443;48.812;9.112;2023-01-16T18:20:48;3.60;99.90
6810;DHT22;3443;48.812;9.112;2023-01-16T18:23:33;3.60;99.90
6810;DHT22;3443;48.812;9.112;2023-01-16T18:25:59;3.60;99.90
6810;DHT22;3443;48.812;9.112;2023-01-16T18:28:25;3.60;99.90
6810;DHT22;3443;48.812;9.112;2023-01-16T18:30:50;3.60;99.90
6810;DHT22;3443;48.812;9.112;2023-01-16T18:33:16;3.90;99.90
6810;DHT22;3443;48.812;9.112;2023-01-16T18:35:41;3.60;99.90
6810;DHT22;3443;48.812;9.112;2023-01-16T18:38:07;3.60;99.90
6810;DHT22;3443;48.812;9.112;2023-01-16T18:40:51;3.10;99.90
6810;DHT22;3443;48.812;9.112;2023-01-16T18:43:35;3.50;99.90
6810;DHT22;3443;48.812;9.112;2023-01-16T18:46:19;2.80;99.90
6810;DHT22;3443;48.812;9.112;2023-01-16T18:49:03;3.50;99.90
6810;DHT22;3443;48.812;9.112;2023-01-16T18:51:48;3.50;99.90
6810;DHT22;3443;48.812;9.112;2023-01-16T18:54:32;3.60;99.90
6810;DHT22;3443;48.812;9.112;2023-01-16T18:57:36;3.60;99.90
6810;DHT22;3443;48.812;9.112;2023-01-16T19:00:21;3.60;99.90
6810;DHT22;3443;48.812;9.112;2023-01-16T19:03:05;3.60;99.90
6810;DHT22;3443;48.812;9.112;2023-01-16T19:05:30;3.60;99.90